createdAt,value
2023-04-07T00:00:11.184Z,75.88
2023-04-07T00:02:44.893Z,76.15
2023-04-07T00:05:15.770Z,76.03
2023-04-07T00:07:55.879Z,76.10
2023-04-07T00:10:27.666Z,76.21
2023-04-07T00:12:58.112Z,75.67
2023-04-07T00:15:31.398Z,76.03
2023-04-07T00:18:01.886Z,76.20
2023-04-07T00:20:32.385Z,76.38
2023-04-07T00:23:02.947Z,76.38
2023-04-07T00:25:33.412Z,76.40
2023-04-07T00:28:04.048Z,76.34
2023-04-07T00:30:37.041Z,76.24
2023-04-07T00:33:09.725Z,76.44
2023-04-07T00:35:40.562Z,75.89
2023-04-07T00:38:11.032Z,75.42
2023-04-07T00:40:41.472Z,75.62
2023-04-07T00:43:12.253Z,75.90
2023-04-07T00:45:45.497Z,76.14
2023-04-07T00:48:15.955Z,75.83
2023-04-07T00:50:47.069Z,76.14
2023-04-07T00:53:17.571Z,76.11
2023-04-07T00:55:48.629Z,76.32
2023-04-07T00:58:19.303Z,76.23
2023-04-07T01:00:57.103Z,76.26
2023-04-07T01:03:34.896Z,76.30
2023-04-07T01:06:09.494Z,76.66
2023-04-07T01:08:53.912Z,76.56
2023-04-07T01:11:31.419Z,76.78
2023-04-07T01:14:03.973Z,77.11
2023-04-07T01:16:54.681Z,77.33
2023-04-07T01:19:39.407Z,77.36
2023-04-07T01:22:17.518Z,77.47
2023-04-07T01:25:30.554Z,77.69
2023-04-07T01:28:24.848Z,77.83
2023-04-07T01:31:01.410Z,77.97
2023-04-07T01:33:36.719Z,78.10
2023-04-07T01:36:10.215Z,78.11
2023-04-07T01:38:42.107Z,78.07
2023-04-07T01:41:14.900Z,77.96
2023-04-07T01:43:46.455Z,77.84
2023-04-07T01:46:19.810Z,77.87
2023-04-07T01:48:51.423Z,78.26
2023-04-07T01:51:24.739Z,78.31
2023-04-07T01:53:56.526Z,78.20
2023-04-07T01:56:27.330Z,78.69
2023-04-07T01:58:59.983Z,78.96
2023-04-07T02:01:33.416Z,78.87
2023-04-07T02:04:12.663Z,78.97
2023-04-07T02:06:53.303Z,78.82
2023-04-07T02:09:33.503Z,78.63
2023-04-07T02:12:08.360Z,78.95
2023-04-07T02:14:42.370Z,78.85
2023-04-07T02:17:19.568Z,78.74
2023-04-07T02:19:50.683Z,79.23
2023-04-07T02:22:22.141Z,79.08
2023-04-07T02:24:52.611Z,79.32
2023-04-07T02:27:29.646Z,79.87
2023-04-07T02:30:00.320Z,80.04
2023-04-07T02:32:33.485Z,80.05
2023-04-07T02:35:04.013Z,79.88
2023-04-07T02:37:34.495Z,79.83
2023-04-07T02:40:05.580Z,79.39
2023-04-07T02:42:36.703Z,79.30
2023-04-07T02:45:07.598Z,79.51
2023-04-07T02:47:41.639Z,79.48
2023-04-07T02:50:13.401Z,78.86
2023-04-07T02:52:44.174Z,78.75
2023-04-07T02:55:18.673Z,78.65
2023-04-07T02:57:49.249Z,78.59
2023-04-07T03:00:38.061Z,78.82
2023-04-07T03:03:21.629Z,79.04
2023-04-07T03:06:21.172Z,78.81
2023-04-07T03:09:03.427Z,78.93
2023-04-07T03:11:33.966Z,79.06
2023-04-07T03:14:04.877Z,79.04
2023-04-07T03:16:36.647Z,78.88
2023-04-07T03:19:16.455Z,78.87
2023-04-07T03:21:51.561Z,79.18
2023-04-07T03:24:21.891Z,79.16
2023-04-07T03:26:53.006Z,79.53
2023-04-07T03:29:35.367Z,79.38
2023-04-07T03:32:08.717Z,79.17
2023-04-07T03:34:41.724Z,79.10
2023-04-07T03:37:12.164Z,78.77
2023-04-07T03:39:42.551Z,78.48
2023-04-07T03:42:26.599Z,78.40
2023-04-07T03:45:03.092Z,78.20
2023-04-07T03:47:36.226Z,78.15
2023-04-07T03:50:12.920Z,78.37
2023-04-07T03:52:53.824Z,78.88
2023-04-07T03:55:28.777Z,79.01
2023-04-07T03:58:04.039Z,78.93
2023-04-07T04:00:37.783Z,79.03
2023-04-07T04:03:13.743Z,79.35
2023-04-07T04:05:56.336Z,79.38
2023-04-07T04:08:32.653Z,79.44
2023-04-07T04:11:03.098Z,79.18
2023-04-07T04:13:39.895Z,78.93
2023-04-07T04:16:13.783Z,78.71
2023-04-07T04:18:45.950Z,78.64
2023-04-07T04:21:20.828Z,78.57
2023-04-07T04:23:51.617Z,78.51
2023-04-07T04:26:26.181Z,78.46
2023-04-07T04:29:00.552Z,78.39
2023-04-07T04:31:31.125Z,78.11
2023-04-07T04:34:02.069Z,78.30
2023-04-07T04:36:37.984Z,78.22
2023-04-07T04:39:09.094Z,78.16
2023-04-07T04:41:40.892Z,78.04
2023-04-07T04:44:12.980Z,78.31
2023-04-07T04:46:45.554Z,78.51
2023-04-07T04:49:16.504Z,78.69
2023-04-07T04:51:49.833Z,78.50
2023-04-07T04:54:22.287Z,78.41
2023-04-07T04:56:53.355Z,78.46
2023-04-07T04:59:24.749Z,78.34
2023-04-07T05:02:03.076Z,78.47
2023-04-07T05:04:33.929Z,78.54
2023-04-07T05:07:18.558Z,78.57
2023-04-07T05:09:49.502Z,78.47
2023-04-07T05:12:22.569Z,78.51
2023-04-07T05:14:59.542Z,78.82
2023-04-07T05:17:30.025Z,79.31
2023-04-07T05:20:03.403Z,79.86
2023-04-07T05:22:42.725Z,79.99
2023-04-07T05:25:16.712Z,80.39
2023-04-07T05:27:48.768Z,80.84
2023-04-07T05:30:20.524Z,82.02
2023-04-07T05:32:51.199Z,82.80
2023-04-07T05:35:30.772Z,83.11
2023-04-07T05:38:05.286Z,83.37
2023-04-07T05:40:37.356Z,83.63
2023-04-07T05:43:10.815Z,83.80
2023-04-07T05:45:42.153Z,83.87
2023-04-07T05:48:12.609Z,84.17
2023-04-07T05:50:47.350Z,83.87
2023-04-07T05:53:23.609Z,83.87
2023-04-07T05:55:54.947Z,83.86
2023-04-07T05:58:38.149Z,83.43
2023-04-07T06:01:08.668Z,83.03
2023-04-07T06:03:41.173Z,83.13
2023-04-07T06:06:22.203Z,83.54
2023-04-07T06:08:55.411Z,83.76
2023-04-07T06:11:27.497Z,83.91
2023-04-07T06:13:58.157Z,83.99
2023-04-07T06:16:28.705Z,84.02
2023-04-07T06:18:59.115Z,84.09
2023-04-07T06:21:32.927Z,84.16
2023-04-07T06:24:06.849Z,84.31
2023-04-07T06:26:39.190Z,84.25
2023-04-07T06:29:09.678Z,84.38
2023-04-07T06:31:40.785Z,84.58
2023-04-07T06:34:11.137Z,84.71
2023-04-07T06:36:42.299Z,84.44
2023-04-07T06:39:15.456Z,84.24
2023-04-07T06:41:47.187Z,83.76
2023-04-07T06:44:17.702Z,83.87
2023-04-07T06:46:53.066Z,83.60
2023-04-07T06:49:23.417Z,83.70
2023-04-07T06:51:53.869Z,83.81
2023-04-07T06:54:27.324Z,84.25
2023-04-07T06:56:57.884Z,84.53
2023-04-07T06:59:28.310Z,84.75
2023-04-07T07:01:58.867Z,84.81
2023-04-07T07:04:29.758Z,84.69
2023-04-07T07:07:00.164Z,84.92
2023-04-07T07:09:33.305Z,84.48
2023-04-07T07:12:04.537Z,84.68
2023-04-07T07:14:35.043Z,84.25
2023-04-07T07:17:05.379Z,83.76
2023-04-07T07:19:36.245Z,83.67
2023-04-07T07:22:07.059Z,83.07
2023-04-07T07:24:40.205Z,82.70
2023-04-07T07:27:10.604Z,83.06
2023-04-07T07:29:41.376Z,83.24
2023-04-07T07:32:11.846Z,82.98
2023-04-07T07:34:42.218Z,82.59
2023-04-07T07:37:13.076Z,81.83
2023-04-07T07:39:46.201Z,81.43
2023-04-07T07:42:16.874Z,81.64
2023-04-07T07:44:47.289Z,80.13
2023-04-07T07:47:17.672Z,79.81
2023-04-07T07:49:48.642Z,79.58
2023-04-07T07:52:19.308Z,80.05
2023-04-07T07:54:53.169Z,79.50
2023-04-07T07:57:23.521Z,77.17
2023-04-07T07:59:53.876Z,76.73
2023-04-07T08:02:29.947Z,76.38
2023-04-07T08:05:00.817Z,76.27
2023-04-07T08:07:32.956Z,76.51
2023-04-07T08:10:06.182Z,77.00
2023-04-07T08:12:37.059Z,74.86
2023-04-07T08:15:10.635Z,74.96
2023-04-07T08:17:41.642Z,74.69
2023-04-07T08:20:14.055Z,74.10
2023-04-07T08:22:44.665Z,73.55
2023-04-07T08:25:17.645Z,72.92
2023-04-07T08:27:48.356Z,72.95
2023-04-07T08:30:18.745Z,69.80
2023-04-07T08:32:49.534Z,69.67
2023-04-07T08:35:20.102Z,69.06
2023-04-07T08:37:50.597Z,67.69
2023-04-07T08:40:23.939Z,68.36
2023-04-07T08:42:55.333Z,69.96
2023-04-07T08:45:26.350Z,70.35
2023-04-07T08:47:59.845Z,69.81
2023-04-07T08:50:30.958Z,70.19
2023-04-07T08:53:07.441Z,70.09
2023-04-07T08:55:41.744Z,70.47
2023-04-07T08:58:15.044Z,70.66
2023-04-07T09:00:49.536Z,71.22
2023-04-07T09:03:21.165Z,70.73
2023-04-07T09:05:56.632Z,69.91
2023-04-07T09:08:27.276Z,68.43
2023-04-07T09:11:01.161Z,68.09
2023-04-07T09:13:31.901Z,67.27
2023-04-07T09:16:05.691Z,67.62
2023-04-07T09:18:36.658Z,68.09
2023-04-07T09:21:08.835Z,69.14
2023-04-07T09:23:41.480Z,68.90
2023-04-07T09:26:28.857Z,69.50
2023-04-07T09:29:03.256Z,70.52
2023-04-07T09:31:50.331Z,71.83
2023-04-07T09:34:33.148Z,69.92
2023-04-07T09:37:04.202Z,69.96
2023-04-07T09:39:35.492Z,70.64
2023-04-07T09:42:12.788Z,69.78
2023-04-07T09:44:44.242Z,69.61
2023-04-07T09:47:14.771Z,68.17
2023-04-07T09:49:56.391Z,67.18
2023-04-07T09:52:52.971Z,67.57
2023-04-07T09:55:25.910Z,68.29
2023-04-07T09:57:59.643Z,68.62
2023-04-07T10:00:30.753Z,69.33
2023-04-07T10:03:02.077Z,68.58
2023-04-07T10:05:32.882Z,66.96
2023-04-07T10:08:05.218Z,67.90
2023-04-07T10:10:36.408Z,66.45
2023-04-07T10:13:10.427Z,65.71
2023-04-07T10:15:41.840Z,65.33
2023-04-07T10:18:13.053Z,65.09
2023-04-07T10:20:44.539Z,65.39
2023-04-07T10:23:22.466Z,64.35
2023-04-07T10:25:55.344Z,65.08
2023-04-07T10:28:30.586Z,65.40
2023-04-07T10:31:02.053Z,66.94
2023-04-07T10:34:03.193Z,67.69
2023-04-07T10:36:35.136Z,67.08
2023-04-07T10:39:25.040Z,66.71
2023-04-07T10:41:56.180Z,66.24
2023-04-07T10:44:53.481Z,67.09
2023-04-07T10:47:24.052Z,65.99
2023-04-07T10:50:21.132Z,65.58
2023-04-07T10:52:53.500Z,64.83
2023-04-07T10:55:39.604Z,65.17
2023-04-07T10:58:24.942Z,64.85
2023-04-07T11:01:25.448Z,63.47
2023-04-07T11:04:02.577Z,63.62
2023-04-07T11:06:33.327Z,62.98
2023-04-07T11:09:03.883Z,61.77
2023-04-07T11:11:43.493Z,60.40
2023-04-07T11:14:13.956Z,60.05
2023-04-07T11:16:47.304Z,59.72
2023-04-07T11:19:17.605Z,60.69
2023-04-07T11:21:48.052Z,61.90
2023-04-07T11:24:37.941Z,62.82
2023-04-07T11:27:08.887Z,62.05
2023-04-07T11:29:39.420Z,62.32
2023-04-07T11:32:13.384Z,62.09
2023-04-07T11:34:44.116Z,61.55
2023-04-07T11:37:25.614Z,60.74
2023-04-07T11:39:57.072Z,60.26
2023-04-07T11:42:37.521Z,59.75
2023-04-07T11:45:09.725Z,60.55
2023-04-07T11:47:43.495Z,59.22
2023-04-07T11:50:14.489Z,59.12
2023-04-07T11:52:46.194Z,58.50
2023-04-07T11:55:24.548Z,59.69
2023-04-07T11:57:55.185Z,59.95
2023-04-07T12:00:26.319Z,59.14
2023-04-07T12:02:59.632Z,59.52
2023-04-07T12:05:45.458Z,59.48
2023-04-07T12:08:17.208Z,58.76
2023-04-07T12:10:48.536Z,59.33
2023-04-07T12:13:19.607Z,59.70
2023-04-07T12:15:50.026Z,59.14
2023-04-07T12:18:23.036Z,59.54
2023-04-07T12:20:53.587Z,59.96
2023-04-07T12:23:24.761Z,61.61
2023-04-07T12:25:55.370Z,62.66
2023-04-07T12:28:25.726Z,62.62
2023-04-07T12:30:56.116Z,63.74
2023-04-07T12:33:29.386Z,64.91
2023-04-07T12:36:01.197Z,65.95
2023-04-07T12:38:31.676Z,68.30
2023-04-07T12:41:03.769Z,69.17
2023-04-07T12:43:34.512Z,70.38
2023-04-07T12:46:04.958Z,70.51
2023-04-07T12:48:38.119Z,69.40
2023-04-07T12:51:09.092Z,69.05
2023-04-07T12:53:39.555Z,69.56
2023-04-07T12:56:10.166Z,69.18
2023-04-07T12:58:40.900Z,68.68
2023-04-07T13:01:12.073Z,67.89
2023-04-07T13:03:45.452Z,67.21
2023-04-07T13:06:16.268Z,66.36
2023-04-07T13:08:46.947Z,65.55
2023-04-07T13:11:17.409Z,65.45
2023-04-07T13:13:48.350Z,65.24
2023-04-07T13:16:19.100Z,65.30
2023-04-07T13:18:52.114Z,65.75
2023-04-07T13:23:56.749Z,65.28
2023-04-07T13:26:28.373Z,64.09
2023-04-07T13:28:59.030Z,64.72
2023-04-07T13:31:30.602Z,64.60
2023-04-07T13:34:03.810Z,64.46
2023-04-07T13:36:34.535Z,64.33
2023-04-07T13:39:05.264Z,63.80
2023-04-07T13:41:35.884Z,64.12
2023-04-07T13:44:06.303Z,64.72
2023-04-07T13:46:37.114Z,64.92
2023-04-07T13:49:10.170Z,64.69
2023-04-07T13:51:41.129Z,64.75
2023-04-07T13:54:12.102Z,64.13
2023-04-07T13:56:42.673Z,64.54
2023-04-07T13:59:13.440Z,64.22
2023-04-07T14:01:44.137Z,63.96
2023-04-07T14:04:17.683Z,64.04
2023-04-07T14:06:48.195Z,63.56
2023-04-07T14:09:18.796Z,63.45
2023-04-07T14:11:49.228Z,62.85
2023-04-07T14:14:19.769Z,62.56
2023-04-07T14:16:52.019Z,62.44
2023-04-07T14:19:26.127Z,62.63
2023-04-07T14:21:56.717Z,62.90
2023-04-07T14:24:27.482Z,62.71
2023-04-07T14:26:58.466Z,62.76
2023-04-07T14:29:29.284Z,60.74
2023-04-07T14:32:00.505Z,60.88
2023-04-07T14:34:33.804Z,60.66
2023-04-07T14:37:04.281Z,60.91
2023-04-07T14:39:34.887Z,60.07
2023-04-07T14:42:05.468Z,60.34
2023-04-07T14:44:36.435Z,59.86
2023-04-07T14:47:07.133Z,61.17
2023-04-07T14:49:40.649Z,60.22
2023-04-07T14:52:13.783Z,60.54
2023-04-07T14:54:44.555Z,60.41
2023-04-07T14:57:15.155Z,61.05
2023-04-07T14:59:45.755Z,61.69
2023-04-07T15:02:16.380Z,62.08
2023-04-07T15:04:49.797Z,60.59
2023-04-07T15:07:21.341Z,61.06
2023-04-07T15:09:52.623Z,61.39
2023-04-07T15:12:23.672Z,62.93
2023-04-07T15:14:55.400Z,61.82
2023-04-07T15:17:40.098Z,62.37
2023-04-07T15:20:16.679Z,61.88
2023-04-07T15:22:47.882Z,62.13
2023-04-07T15:25:18.689Z,62.19
2023-04-07T15:27:49.885Z,61.98
2023-04-07T15:30:20.797Z,62.65
2023-04-07T15:33:01.517Z,62.37
2023-04-07T15:35:35.329Z,62.22
2023-04-07T15:38:06.767Z,62.08
2023-04-07T15:40:46.227Z,62.61
2023-04-07T15:43:36.449Z,60.91
2023-04-07T15:46:08.236Z,59.70
2023-04-07T15:48:39.074Z,59.47
2023-04-07T15:51:21.801Z,57.07
2023-04-07T15:53:53.144Z,57.28
2023-04-07T15:56:25.243Z,56.75
2023-04-07T15:58:56.148Z,54.98
2023-04-07T16:01:29.237Z,55.42
2023-04-07T16:04:00.057Z,55.80
2023-04-07T16:06:33.692Z,53.66
2023-04-07T16:09:04.291Z,53.11
2023-04-07T16:11:37.529Z,53.60
2023-04-07T16:14:10.924Z,53.44
2023-04-07T16:16:41.709Z,53.09
2023-04-07T16:19:14.844Z,53.22
2023-04-07T16:21:54.403Z,52.45
2023-04-07T16:24:25.273Z,53.46
2023-04-07T16:26:56.365Z,53.02
2023-04-07T16:29:27.263Z,53.05
2023-04-07T16:31:58.827Z,54.23
2023-04-07T16:34:32.668Z,54.91
2023-04-07T16:37:05.714Z,55.66
2023-04-07T16:39:36.099Z,56.50
2023-04-07T16:42:06.705Z,57.25
2023-04-07T16:44:37.257Z,57.47
2023-04-07T16:47:07.773Z,56.63
2023-04-07T16:49:38.223Z,55.99
2023-04-07T16:52:11.515Z,56.66
2023-04-07T16:54:41.901Z,57.46
2023-04-07T16:57:12.625Z,57.68
2023-04-07T16:59:43.580Z,58.30
2023-04-07T17:02:16.826Z,58.80
2023-04-07T17:04:47.792Z,59.36
2023-04-07T17:07:22.156Z,59.62
2023-04-07T17:09:52.553Z,59.86
2023-04-07T17:12:22.908Z,59.85
2023-04-07T17:14:53.547Z,60.64
2023-04-07T17:17:24.016Z,60.75
2023-04-07T17:19:57.917Z,60.87
2023-04-07T17:22:30.952Z,61.24
2023-04-07T17:25:01.399Z,60.54
2023-04-07T17:27:32.010Z,59.59
2023-04-07T17:30:02.541Z,59.59
2023-04-07T17:32:33.468Z,59.93
2023-04-07T17:35:04.111Z,59.58
2023-04-07T17:37:38.513Z,60.08
2023-04-07T17:40:11.714Z,60.18
2023-04-07T17:42:43.120Z,60.85
2023-04-07T17:45:13.750Z,61.74
2023-04-07T17:47:46.592Z,62.24
2023-04-07T17:50:17.977Z,63.30
2023-04-07T17:52:51.561Z,64.03
2023-04-07T17:55:22.648Z,65.21
2023-04-07T17:57:53.575Z,65.48
2023-04-07T18:00:25.936Z,65.93
2023-04-07T18:02:57.164Z,66.21
2023-04-07T18:05:31.254Z,67.05
2023-04-07T18:08:04.285Z,67.10
2023-04-07T18:10:34.831Z,67.60
2023-04-07T18:13:06.856Z,68.36
2023-04-07T18:15:37.607Z,68.50
2023-04-07T18:18:08.352Z,68.90
2023-04-07T18:20:39.008Z,69.34
2023-04-07T18:23:12.309Z,69.88
2023-04-07T18:25:42.749Z,70.51
2023-04-07T18:28:13.326Z,70.53
2023-04-07T18:30:43.866Z,71.20
2023-04-07T18:33:14.463Z,71.22
2023-04-07T18:35:45.020Z,70.95
2023-04-07T18:38:18.005Z,71.15
2023-04-07T18:40:48.524Z,70.91
2023-04-07T18:43:19.020Z,70.71
2023-04-07T18:45:49.869Z,70.81
2023-04-07T18:48:21.810Z,71.03
2023-04-07T18:50:56.723Z,70.95
2023-04-07T18:53:29.796Z,71.10
2023-04-07T18:56:00.220Z,71.31
2023-04-07T18:58:32.024Z,71.80
2023-04-07T19:01:02.694Z,72.08
2023-04-07T19:03:33.281Z,72.42
2023-04-07T19:06:04.706Z,72.32
2023-04-07T19:08:38.702Z,72.57
2023-04-07T19:11:09.227Z,72.84
2023-04-07T19:13:40.570Z,73.03
2023-04-07T19:16:11.365Z,73.47
2023-04-07T19:18:41.908Z,73.88
2023-04-07T19:21:13.609Z,73.86
2023-04-07T19:23:47.948Z,74.22
2023-04-07T19:26:18.780Z,74.52
2023-04-07T19:28:49.478Z,74.83
2023-04-07T19:31:19.873Z,75.15
2023-04-07T19:33:50.793Z,75.30
2023-04-07T19:36:21.500Z,75.65
2023-04-07T19:38:54.729Z,75.70
2023-04-07T19:41:25.063Z,75.92
2023-04-07T19:43:55.671Z,76.08
2023-04-07T19:46:26.226Z,76.08
2023-04-07T19:48:56.843Z,76.35
2023-04-07T19:51:27.709Z,76.13
2023-04-07T19:54:00.838Z,76.55
2023-04-07T19:56:31.447Z,76.58
2023-04-07T19:59:01.941Z,76.67
2023-04-07T20:01:32.814Z,76.83
2023-04-07T20:04:04.012Z,76.54
2023-04-07T20:06:36.834Z,76.67
2023-04-07T20:09:10.613Z,76.91
2023-04-07T20:11:41.147Z,76.92
2023-04-07T20:14:11.668Z,77.24
2023-04-07T20:16:42.985Z,77.38
2023-04-07T20:19:13.427Z,77.19
2023-04-07T20:21:44.002Z,77.49
2023-04-07T20:24:17.142Z,77.39
2023-04-07T20:26:47.718Z,77.80
2023-04-07T20:29:19.496Z,77.70
2023-04-07T20:31:51.465Z,77.84
2023-04-07T20:34:22.153Z,78.14
2023-04-07T20:36:52.568Z,78.35
2023-04-07T20:39:25.594Z,77.95
2023-04-07T20:41:57.254Z,78.42
2023-04-07T20:44:29.368Z,78.40
2023-04-07T20:46:59.765Z,78.64
2023-04-07T20:49:30.686Z,78.81
2023-04-07T20:52:01.098Z,78.89
2023-04-07T20:54:34.227Z,79.25
2023-04-07T20:57:04.751Z,79.40
2023-04-07T20:59:35.619Z,79.43
2023-04-07T21:02:06.819Z,79.63
2023-04-07T21:04:37.988Z,79.82
2023-04-07T21:07:08.469Z,79.79
2023-04-07T21:09:41.599Z,79.93
2023-04-07T21:12:12.822Z,80.05
2023-04-07T21:14:43.315Z,80.40
2023-04-07T21:17:13.782Z,80.46
2023-04-07T21:19:44.358Z,80.48
2023-04-07T21:22:15.548Z,80.48
2023-04-07T21:24:48.602Z,80.31
2023-04-07T21:27:19.349Z,80.58
2023-04-07T21:29:49.954Z,80.68
2023-04-07T21:32:21.015Z,80.96
2023-04-07T21:34:55.449Z,81.01
2023-04-07T21:37:27.647Z,81.25
2023-04-07T21:40:00.816Z,81.07
2023-04-07T21:42:31.437Z,81.29
2023-04-07T21:45:01.990Z,81.36
2023-04-07T21:47:32.398Z,81.70
2023-04-07T21:50:02.834Z,81.67
2023-04-07T21:52:33.300Z,81.61
2023-04-07T21:55:06.585Z,81.69
2023-04-07T21:57:37.042Z,81.48
2023-04-07T22:00:09.701Z,81.48
2023-04-07T22:02:46.429Z,81.85
2023-04-07T22:05:17.976Z,81.96
2023-04-07T22:07:48.595Z,82.18
2023-04-07T22:10:21.832Z,82.66
2023-04-07T22:12:52.366Z,82.89
2023-04-07T22:15:22.953Z,82.90
2023-04-07T22:17:53.602Z,83.27
2023-04-07T22:20:25.728Z,83.16
2023-04-07T22:22:57.894Z,82.95
2023-04-07T22:25:31.071Z,83.01
2023-04-07T22:28:01.597Z,82.93
2023-04-07T22:30:32.033Z,82.89
2023-04-07T22:33:02.604Z,82.49
2023-04-07T22:35:33.049Z,82.54
2023-04-07T22:38:03.509Z,82.71
2023-04-07T22:40:36.495Z,83.10
2023-04-07T22:43:06.940Z,83.36
2023-04-07T22:45:37.530Z,83.73
2023-04-07T22:48:08.428Z,83.64
2023-04-07T22:50:39.117Z,83.69
2023-04-07T22:53:09.590Z,83.64
2023-04-07T22:55:42.929Z,83.81
2023-04-07T22:58:13.312Z,84.02
2023-04-07T23:00:44.070Z,84.36
2023-04-07T23:03:15.136Z,84.43
2023-04-07T23:05:45.777Z,84.78
2023-04-07T23:08:16.190Z,85.07
2023-04-07T23:10:49.353Z,85.29
2023-04-07T23:13:19.785Z,85.37
2023-04-07T23:15:50.252Z,85.56
2023-04-07T23:18:20.761Z,85.66
2023-04-07T23:20:54.648Z,85.57
2023-04-07T23:23:25.958Z,85.98
2023-04-07T23:25:59.045Z,86.17
2023-04-07T23:28:29.554Z,86.17
2023-04-07T23:30:59.928Z,85.90
2023-04-07T23:33:30.569Z,85.97
2023-04-07T23:36:01.418Z,86.29
2023-04-07T23:38:32.031Z,86.59
2023-04-07T23:41:05.074Z,86.61
2023-04-07T23:43:35.812Z,87.04
2023-04-07T23:46:06.864Z,87.04
2023-04-07T23:48:37.225Z,87.37
2023-04-07T23:51:08.503Z,87.67
2023-04-07T23:53:38.898Z,87.47
2023-04-07T23:56:11.901Z,87.58
2023-04-07T23:58:42.330Z,88.05
